Terminal Aerodrome Forecast
Issued by NWS Des Moines, IA

Home | Current Version | Previous Version | Text Only | Print | Product List | Glossary On
Versions: 1 2 3 4 5 6 7 8 9 10 11 12 13 14 15 16 17 18 19 20 21 22 23 24 25 26 27 28 29 30 31 32 33 34 35 36 37 38 39 40 41
000
FTUS43 KDMX 300535
TAFDSM
TAF
KDSM 300535Z 3006/0106 05014G19KT 3SM -RADZ BR BKN006 OVC012
     FM301300 06014G23KT 4SM SHRA VCTS SCT009 OVC025CB
     FM301700 07014G21KT 2SM -SHRA OVC030
     FM302200 11011KT 3SM -SHRA BKN018 OVC035
     FM010200 16009G16KT P6SM VCSH OVC018=

USA.gov is the U.S. government's official web portal to all federal, state and local government web resources and services.